createdAt,value
2018-02-10T00:01:22.583Z,93.27
2018-02-10T00:03:50.790Z,84.40
2018-02-10T00:06:18.968Z,89.87
2018-02-10T00:08:47.185Z,89.60
2018-02-10T00:11:15.374Z,81.87
2018-02-10T00:13:43.551Z,91.83
2018-02-10T00:16:11.765Z,88.37
2018-02-10T00:18:40.720Z,78.30
2018-02-10T00:21:08.918Z,77.90
2018-02-10T00:23:37.872Z,78.93
2018-02-10T00:26:06.077Z,78.90
2018-02-10T00:28:34.266Z,80.53
2018-02-10T00:31:03.236Z,72.83
2018-02-10T00:33:31.437Z,82.17
2018-02-10T00:36:00.393Z,81.37
2018-02-10T00:38:28.581Z,85.77
2018-02-10T00:40:56.773Z,89.93
2018-02-10T00:43:25.721Z,86.77
2018-02-10T00:45:53.950Z,92.83
2018-02-10T00:48:22.919Z,96.63
2018-02-10T00:50:51.121Z,93.87
2018-02-10T00:53:20.079Z,96.17
2018-02-10T00:55:48.302Z,98.27
2018-02-10T00:58:16.473Z,98.90
2018-02-10T01:00:44.665Z,99.63
2018-02-10T01:03:12.981Z,95.83
2018-02-10T01:05:41.162Z,105.10
2018-02-10T01:08:09.371Z,100.57
2018-02-10T01:10:37.556Z,96.00
2018-02-10T01:13:05.735Z,108.77
2018-02-10T01:15:33.941Z,99.53
2018-02-10T01:18:02.150Z,99.80
2018-02-10T01:20:31.106Z,95.83
2018-02-10T01:22:59.305Z,100.93
2018-02-10T01:25:27.510Z,103.53
2018-02-10T01:27:55.704Z,101.13
2018-02-10T01:30:23.889Z,100.17
2018-02-10T01:32:52.069Z,98.50
2018-02-10T01:35:20.272Z,104.07
2018-02-10T01:37:48.518Z,99.17
2018-02-10T01:40:16.686Z,96.97
2018-02-10T01:42:44.879Z,103.00
2018-02-10T01:45:13.839Z,106.03
2018-02-10T01:47:42.067Z,107.50
2018-02-10T01:50:22.327Z,100.63
2018-02-10T01:52:50.589Z,102.13
2018-02-10T01:55:18.767Z,102.50
2018-02-10T01:57:46.961Z,108.30
2018-02-10T02:00:15.179Z,104.00
2018-02-10T02:02:43.362Z,98.30
2018-02-10T02:05:11.547Z,102.30
2018-02-10T02:07:39.747Z,103.90
2018-02-10T02:10:07.966Z,100.87
2018-02-10T02:12:36.166Z,97.53
2018-02-10T02:15:04.470Z,103.17
2018-02-10T02:17:32.745Z,101.00
2018-02-10T02:20:00.947Z,107.10
2018-02-10T02:22:29.911Z,108.33
2018-02-10T02:24:58.103Z,103.93
2018-02-10T02:27:26.305Z,97.30
2018-02-10T02:29:55.257Z,104.50
2018-02-10T02:32:23.478Z,105.00
2018-02-10T02:34:52.433Z,98.63
2018-02-10T02:37:20.765Z,102.13
2018-02-10T02:39:48.967Z,104.17
2018-02-10T02:42:17.171Z,103.13
2018-02-10T02:44:46.173Z,101.83
2018-02-10T02:47:14.365Z,106.27
2018-02-10T02:49:43.327Z,100.93
2018-02-10T02:52:11.513Z,96.97
2018-02-10T02:54:39.690Z,94.97
2018-02-10T02:57:08.666Z,92.33
2018-02-10T02:59:36.868Z,97.20
2018-02-10T03:02:05.821Z,94.77
2018-02-10T03:04:34.075Z,101.60
2018-02-10T03:07:02.262Z,93.83
2018-02-10T03:09:30.477Z,98.00
2018-02-10T03:11:58.660Z,99.17
2018-02-10T03:14:27.629Z,94.53
2018-02-10T03:16:55.852Z,98.93
2018-02-10T03:19:24.061Z,105.67
2018-02-10T03:21:52.254Z,101.10
2018-02-10T03:24:20.458Z,91.53
2018-02-10T03:26:49.409Z,97.57
2018-02-10T03:29:17.619Z,100.87
2018-02-10T03:31:46.591Z,97.77
2018-02-10T03:34:14.767Z,96.10
2018-02-10T03:36:43.001Z,97.07
2018-02-10T03:39:11.202Z,99.50
2018-02-10T03:41:39.410Z,98.07
2018-02-10T03:44:07.642Z,98.50
2018-02-10T03:46:35.841Z,102.07
2018-02-10T03:49:04.060Z,113.10
2018-02-10T03:51:32.258Z,109.70
2018-02-10T03:54:00.464Z,106.30
2018-02-10T03:56:28.681Z,111.20
2018-02-10T03:58:57.642Z,108.77
2018-02-10T04:01:25.820Z,113.30
2018-02-10T04:03:54.053Z,103.03
2018-02-10T04:06:22.274Z,108.67
2018-02-10T04:08:50.541Z,113.40
2018-02-10T04:11:18.730Z,110.33
2018-02-10T04:13:46.922Z,109.77
2018-02-10T04:16:15.903Z,101.73
2018-02-10T04:18:44.933Z,103.07
2018-02-10T04:21:13.119Z,97.87
2018-02-10T04:23:41.394Z,100.13
2018-02-10T04:26:09.588Z,91.13
2018-02-10T04:28:37.793Z,99.63
2018-02-10T04:31:06.047Z,90.63
2018-02-10T04:33:34.230Z,84.20
2018-02-10T04:36:02.426Z,85.10
2018-02-10T04:38:31.393Z,84.13
2018-02-10T04:40:59.642Z,85.03
2018-02-10T04:43:27.835Z,82.43
2018-02-10T04:45:56.063Z,83.87
2018-02-10T04:48:24.250Z,82.73
2018-02-10T04:50:52.479Z,79.17
2018-02-10T04:53:20.709Z,80.37
2018-02-10T04:55:48.914Z,82.73
2018-02-10T04:58:17.166Z,72.43
2018-02-10T05:00:45.449Z,69.53
2018-02-10T05:03:13.653Z,78.57
2018-02-10T05:05:41.863Z,77.03
2018-02-10T05:08:10.853Z,71.57
2018-02-10T05:10:39.841Z,74.73
2018-02-10T05:13:08.841Z,71.77
2018-02-10T05:15:37.805Z,72.20
2018-02-10T05:18:05.993Z,66.77
2018-02-10T05:20:34.948Z,69.57
2018-02-10T05:23:03.122Z,76.00
2018-02-10T05:25:31.342Z,70.87
2018-02-10T05:28:00.358Z,71.10
2018-02-10T05:30:28.669Z,66.28
2018-02-10T05:32:56.880Z,65.37
2018-02-10T05:35:25.074Z,65.13
2018-02-10T05:37:54.027Z,61.00
2018-02-10T05:40:22.214Z,61.87
2018-02-10T05:42:50.458Z,56.33
2018-02-10T05:45:18.944Z,58.20
2018-02-10T05:47:47.148Z,58.47
2018-02-10T05:50:15.346Z,57.80
2018-02-10T05:52:43.562Z,58.80
2018-02-10T05:55:11.739Z,59.37
2018-02-10T05:57:40.045Z,60.30
2018-02-10T06:00:08.259Z,65.50
2018-02-10T06:02:37.212Z,62.00
2018-02-10T06:05:05.405Z,58.60
2018-02-10T06:07:33.606Z,59.73
2018-02-10T06:10:02.603Z,58.60
2018-02-10T06:12:30.816Z,54.50
2018-02-10T06:14:59.022Z,55.30
2018-02-10T06:17:27.257Z,56.60
2018-02-10T06:19:55.486Z,57.93
2018-02-10T06:22:24.442Z,56.67
2018-02-10T06:24:52.650Z,56.47
2018-02-10T06:27:21.659Z,57.67
2018-02-10T06:29:50.651Z,58.80
2018-02-10T06:32:19.678Z,57.40
2018-02-10T06:34:47.929Z,63.43
2018-02-10T06:37:16.117Z,54.40
2018-02-10T06:39:44.305Z,57.37
2018-02-10T06:42:12.490Z,56.30
2018-02-10T06:44:40.677Z,54.97
2018-02-10T06:47:08.851Z,56.70
2018-02-10T06:49:37.045Z,56.83
2018-02-10T06:52:05.376Z,54.17
2018-02-10T06:54:33.614Z,55.13
2018-02-10T06:57:02.586Z,53.83
2018-02-10T06:59:30.789Z,53.03
2018-02-10T07:01:59.736Z,56.00
2018-02-10T07:04:27.933Z,55.30
2018-02-10T07:06:56.134Z,56.87
2018-02-10T07:09:25.246Z,56.40
2018-02-10T07:11:53.492Z,52.80
2018-02-10T07:14:22.062Z,51.53
2018-02-10T07:16:50.286Z,53.43
2018-02-10T07:19:18.481Z,56.87
2018-02-10T07:21:46.659Z,55.70
2018-02-10T07:24:14.840Z,56.93
2018-02-10T07:26:43.015Z,55.73
2018-02-10T07:29:11.201Z,54.27
2018-02-10T07:31:39.389Z,55.37
2018-02-10T07:34:07.595Z,52.27
2018-02-10T07:36:35.798Z,54.90
2018-02-10T07:39:04.087Z,58.87
2018-02-10T07:41:32.285Z,54.93
2018-02-10T07:44:00.479Z,54.10
2018-02-10T07:46:29.443Z,56.03
2018-02-10T07:48:57.643Z,55.00
2018-02-10T07:51:25.823Z,57.97
2018-02-10T07:53:54.824Z,54.80
2018-02-10T07:56:23.806Z,53.20
2018-02-10T07:58:52.054Z,54.00
2018-02-10T08:01:20.413Z,54.90
2018-02-10T08:03:48.589Z,51.47
2018-02-10T08:06:16.875Z,51.30
2018-02-10T08:08:45.098Z,53.67
2018-02-10T08:11:14.079Z,56.00
2018-02-10T08:13:42.261Z,50.80
2018-02-10T08:16:11.213Z,51.60
2018-02-10T08:18:39.390Z,48.80
2018-02-10T08:21:07.550Z,47.43
2018-02-10T08:23:35.736Z,49.00
2018-02-10T08:26:03.929Z,47.47
2018-02-10T08:28:32.124Z,52.23
2018-02-10T08:31:01.081Z,48.67
2018-02-10T08:33:29.281Z,49.47
2018-02-10T08:35:57.465Z,53.47
2018-02-10T08:38:26.433Z,49.23
2018-02-10T08:40:54.648Z,52.63
2018-02-10T08:43:23.619Z,51.70
2018-02-10T08:45:51.851Z,49.60
2018-02-10T08:48:20.047Z,48.00
2018-02-10T08:50:48.271Z,52.30
2018-02-10T08:53:16.491Z,50.67
2018-02-10T08:55:44.669Z,53.10
2018-02-10T08:58:12.882Z,50.63
2018-02-10T09:00:41.835Z,54.47
2018-02-10T09:03:10.028Z,48.47
2018-02-10T09:05:38.217Z,54.27
2018-02-10T09:08:06.449Z,48.07
2018-02-10T09:10:34.651Z,49.10
2018-02-10T09:13:02.866Z,46.90
2018-02-10T09:15:31.847Z,45.10
2018-02-10T09:18:00.028Z,46.97
2018-02-10T09:20:28.995Z,44.83
2018-02-10T09:22:57.218Z,45.10
2018-02-10T09:25:25.404Z,43.30
2018-02-10T09:27:53.603Z,41.00
2018-02-10T09:30:21.806Z,44.50
2018-02-10T09:32:50.758Z,43.80
2018-02-10T09:35:18.942Z,44.50
2018-02-10T09:37:47.123Z,43.50
2018-02-10T09:40:15.312Z,43.93
2018-02-10T09:42:43.482Z,43.13
2018-02-10T09:45:11.684Z,42.93
2018-02-10T09:47:40.663Z,47.30
2018-02-10T09:50:08.858Z,47.40
2018-02-10T09:52:37.826Z,48.03
2018-02-10T09:55:06.023Z,42.50
2018-02-10T09:57:35.037Z,45.33
2018-02-10T10:00:03.230Z,46.40
2018-02-10T10:02:31.410Z,44.33
2018-02-10T10:04:59.615Z,47.90
2018-02-10T10:07:27.824Z,45.30
2018-02-10T10:09:56.781Z,44.57
2018-02-10T10:12:24.954Z,43.20
2018-02-10T10:14:53.144Z,42.60
2018-02-10T10:17:21.317Z,41.87
2018-02-10T10:19:49.491Z,39.73
2018-02-10T10:22:17.674Z,41.20
2018-02-10T10:24:46.630Z,41.53
2018-02-10T10:27:14.824Z,42.00
2018-02-10T10:29:42.998Z,47.60
2018-02-10T10:32:11.208Z,46.20
2018-02-10T10:34:40.162Z,40.70
2018-02-10T10:37:08.377Z,41.47
2018-02-10T10:39:37.326Z,40.90
2018-02-10T10:42:05.560Z,43.20
2018-02-10T10:44:33.754Z,47.80
2018-02-10T10:47:01.957Z,46.20
2018-02-10T10:49:30.195Z,44.50
2018-02-10T10:51:58.389Z,47.40
2018-02-10T10:54:26.633Z,41.33
2018-02-10T10:56:54.865Z,42.00
2018-02-10T10:59:23.075Z,41.07
2018-02-10T11:01:52.044Z,40.57
2018-02-10T11:04:20.274Z,40.00
2018-02-10T11:06:48.442Z,41.73
2018-02-10T11:09:16.610Z,43.93
2018-02-10T11:11:44.821Z,40.27
2018-02-10T11:14:13.022Z,44.47
2018-02-10T11:16:41.220Z,46.83
2018-02-10T11:19:09.421Z,46.90
2018-02-10T11:21:37.595Z,43.30
2018-02-10T11:24:05.782Z,45.37
2018-02-10T11:26:34.006Z,44.57
2018-02-10T11:29:02.950Z,44.60
2018-02-10T11:31:31.955Z,39.87
2018-02-10T11:34:00.155Z,43.80
2018-02-10T11:36:28.330Z,44.13
2018-02-10T11:38:56.515Z,45.57
2018-02-10T11:41:25.465Z,49.03
2018-02-10T11:43:53.703Z,47.87
2018-02-10T11:46:21.870Z,40.40
2018-02-10T11:48:50.812Z,43.03
2018-02-10T11:51:18.989Z,44.03
2018-02-10T11:53:47.209Z,50.23
2018-02-10T11:56:16.166Z,45.37
2018-02-10T11:58:44.395Z,47.17
2018-02-10T12:01:12.585Z,47.67
2018-02-10T12:03:40.759Z,44.53
2018-02-10T12:06:08.935Z,46.90
2018-02-10T12:08:37.130Z,47.73
2018-02-10T12:11:05.341Z,50.10
2018-02-10T12:13:34.285Z,46.50
2018-02-10T12:16:02.470Z,48.93
2018-02-10T12:18:30.661Z,49.90
2018-02-10T12:20:58.859Z,46.13
2018-02-10T12:23:27.834Z,46.90
2018-02-10T12:25:56.021Z,50.17
2018-02-10T12:28:24.223Z,50.07
2018-02-10T12:30:52.510Z,49.20
2018-02-10T12:33:20.703Z,46.17
2018-02-10T12:35:48.901Z,44.00
2018-02-10T12:38:17.142Z,42.77
2018-02-10T12:40:45.399Z,44.43
2018-02-10T12:43:14.373Z,44.43
2018-02-10T12:45:43.443Z,43.20
2018-02-10T12:51:05.805Z,48.77
2018-02-10T12:53:34.086Z,51.27
2018-02-10T12:56:02.294Z,45.37
2018-02-10T12:58:31.301Z,42.50
2018-02-10T13:00:59.557Z,40.70
2018-02-10T13:03:28.542Z,40.47
2018-02-10T13:05:57.511Z,36.73
2018-02-10T13:08:25.684Z,41.60
2018-02-10T13:10:53.910Z,41.40
2018-02-10T13:13:22.093Z,40.70
2018-02-10T13:15:50.286Z,40.37
2018-02-10T13:18:18.469Z,39.40
2018-02-10T13:20:46.681Z,41.23
2018-02-10T13:23:14.883Z,41.93
2018-02-10T13:25:43.094Z,43.67
2018-02-10T13:28:11.312Z,39.63
2018-02-10T13:30:40.339Z,39.43
2018-02-10T13:33:08.573Z,40.03
2018-02-10T13:35:36.761Z,41.83
2018-02-10T13:38:05.734Z,42.13
2018-02-10T13:40:33.943Z,41.40
2018-02-10T13:43:02.898Z,43.77
2018-02-10T13:45:31.120Z,42.53
2018-02-10T13:47:59.301Z,42.97
2018-02-10T13:50:27.490Z,39.53
2018-02-10T13:52:55.684Z,41.90
2018-02-10T13:55:23.881Z,47.10
2018-02-10T13:57:52.065Z,43.27
2018-02-10T14:00:21.033Z,45.07
2018-02-10T14:02:49.202Z,43.13
2018-02-10T14:05:18.135Z,43.80
2018-02-10T14:07:47.122Z,43.90
2018-02-10T14:10:16.080Z,44.07
2018-02-10T14:12:44.275Z,42.70
2018-02-10T14:15:12.466Z,45.57
2018-02-10T14:17:41.512Z,42.33
2018-02-10T14:20:09.690Z,45.90
2018-02-10T14:22:37.914Z,42.90
2018-02-10T14:25:06.853Z,45.23
2018-02-10T14:27:35.046Z,40.37
2018-02-10T14:30:03.270Z,40.30
2018-02-10T14:32:32.219Z,40.60
2018-02-10T14:35:00.401Z,42.37
2018-02-10T14:37:28.578Z,39.57
2018-02-10T14:39:56.754Z,40.70
2018-02-10T14:42:24.935Z,37.10
2018-02-10T14:44:53.113Z,40.43
2018-02-10T14:47:21.347Z,40.87
2018-02-10T14:49:49.513Z,39.40
2018-02-10T14:52:17.689Z,37.47
2018-02-10T14:54:45.866Z,38.10
2018-02-10T14:57:14.046Z,38.90
2018-02-10T14:59:42.228Z,40.20
2018-02-10T15:02:10.411Z,38.30
2018-02-10T15:04:38.590Z,40.10
2018-02-10T15:07:06.763Z,40.40
2018-02-10T15:09:34.926Z,38.33
2018-02-10T15:12:03.127Z,41.27
2018-02-10T15:14:31.294Z,39.80
2018-02-10T15:16:59.498Z,40.20
2018-02-10T15:19:28.443Z,38.93
2018-02-10T15:21:56.616Z,40.03
2018-02-10T15:24:24.799Z,42.57
2018-02-10T15:26:52.993Z,39.53
2018-02-10T15:29:21.158Z,37.70
2018-02-10T15:32:07.227Z,40.13
2018-02-10T15:34:47.235Z,41.37
2018-02-10T15:37:16.174Z,40.23
2018-02-10T15:39:44.361Z,37.80
2018-02-10T17:04:10.258Z,42.20
2018-02-10T17:06:38.434Z,49.03
2018-02-10T17:09:06.606Z,47.90
2018-02-10T17:11:34.811Z,47.00
2018-02-10T17:14:03.767Z,47.57
2018-02-10T17:16:31.952Z,49.40
2018-02-10T17:19:00.134Z,48.50
2018-02-10T17:21:28.358Z,45.63
2018-02-10T17:23:59.493Z,50.13
2018-02-10T17:26:27.899Z,45.00
2018-02-10T17:28:56.094Z,45.43
2018-02-10T17:31:24.278Z,45.27
2018-02-10T17:33:52.478Z,45.73
2018-02-10T17:36:21.447Z,46.53
2018-02-10T17:38:49.629Z,48.77
2018-02-10T17:41:17.830Z,46.37
2018-02-10T17:43:45.995Z,45.90
2018-02-10T17:46:14.935Z,49.57
2018-02-10T17:48:43.155Z,48.00
2018-02-10T17:51:12.099Z,46.43
2018-02-10T17:53:40.280Z,49.77
2018-02-10T17:56:08.485Z,49.77
2018-02-10T17:58:36.664Z,46.53
2018-02-10T18:01:04.835Z,47.07
2018-02-10T18:03:33.034Z,49.03
2018-02-10T18:06:01.974Z,52.67
2018-02-10T18:08:30.178Z,52.40
2018-02-10T18:10:58.366Z,46.27
2018-02-10T18:13:27.314Z,47.53
2018-02-10T18:15:55.484Z,43.90
2018-02-10T18:18:23.665Z,46.87
2018-02-10T18:20:51.837Z,48.67
2018-02-10T18:23:20.029Z,48.10
2018-02-10T18:25:48.223Z,46.97
2018-02-10T18:28:16.410Z,48.70
2018-02-10T18:30:45.363Z,48.07
2018-02-10T18:33:13.538Z,48.77
2018-02-10T18:35:41.719Z,46.43
2018-02-10T18:38:09.975Z,48.47
2018-02-10T18:40:38.148Z,47.40
2018-02-10T18:43:06.326Z,47.87
2018-02-10T18:45:34.516Z,49.73
2018-02-10T18:48:02.710Z,54.00
2018-02-10T18:50:30.902Z,50.30
2018-02-10T18:52:59.850Z,50.93
2018-02-10T18:55:28.021Z,45.20
2018-02-10T18:57:56.202Z,41.93
2018-02-10T19:00:24.378Z,44.67
2018-02-10T19:02:52.560Z,43.67
2018-02-10T19:05:20.733Z,45.77
2018-02-10T19:07:48.898Z,45.43
2018-02-10T19:10:17.870Z,46.00
2018-02-10T19:12:46.054Z,45.30
2018-02-10T19:15:14.235Z,47.40
2018-02-10T19:17:42.432Z,51.40
2018-02-10T19:20:11.418Z,51.50
2018-02-10T19:22:39.614Z,50.27
2018-02-10T19:25:07.816Z,50.47
2018-02-10T19:27:36.762Z,51.43
2018-02-10T19:30:04.927Z,49.27
2018-02-10T19:32:33.112Z,54.50
2018-02-10T19:35:01.305Z,53.97
2018-02-10T19:37:29.501Z,48.13
2018-02-10T19:39:58.444Z,51.37
2018-02-10T19:42:26.639Z,49.30
2018-02-10T19:44:54.839Z,51.37
2018-02-10T19:47:23.793Z,50.90
2018-02-10T19:49:51.988Z,55.07
2018-02-10T19:52:20.177Z,50.77
2018-02-10T19:54:49.123Z,51.57
2018-02-10T19:57:18.074Z,51.00
2018-02-10T19:59:47.016Z,50.50
2018-02-10T20:02:15.198Z,49.67
2018-02-10T20:04:43.376Z,53.83
2018-02-10T20:07:11.564Z,52.27
2018-02-10T20:09:39.749Z,55.30
2018-02-10T20:12:08.700Z,53.43
2018-02-10T20:14:36.899Z,52.07
2018-02-10T20:17:05.075Z,51.17
2018-02-10T20:19:33.286Z,54.37
2018-02-10T20:22:01.463Z,55.00
2018-02-10T20:24:29.648Z,49.40
2018-02-10T20:26:57.840Z,49.47
2018-02-10T20:29:26.019Z,49.20
2018-02-10T20:31:54.217Z,50.77
2018-02-10T20:34:22.386Z,53.03
2018-02-10T20:36:50.554Z,51.57
2018-02-10T20:39:19.524Z,52.27
2018-02-10T20:41:47.712Z,51.37
2018-02-10T20:44:15.886Z,52.20
2018-02-10T20:46:44.081Z,52.97
2018-02-10T20:49:12.250Z,50.17
2018-02-10T20:51:40.424Z,47.10
2018-02-10T20:54:08.623Z,51.53
2018-02-10T20:56:36.798Z,50.50
2018-02-10T20:59:04.975Z,55.03
2018-02-10T21:01:33.217Z,49.77
2018-02-10T21:04:01.410Z,49.90
2018-02-10T21:06:29.586Z,55.17
2018-02-10T21:08:57.755Z,52.27
2018-02-10T21:11:25.946Z,55.10
2018-02-10T21:13:54.126Z,49.60
2018-02-10T21:16:23.085Z,50.80
2018-02-10T21:18:51.265Z,56.67
2018-02-10T21:21:19.435Z,54.57
2018-02-10T21:23:47.638Z,54.80
2018-02-10T21:26:15.840Z,50.87
2018-02-10T21:28:44.770Z,55.07
2018-02-10T21:31:12.949Z,55.77
2018-02-10T21:33:41.132Z,54.37
2018-02-10T21:36:09.334Z,52.80
2018-02-10T21:38:37.537Z,53.90
2018-02-10T21:41:05.714Z,53.70
2018-02-10T21:43:33.884Z,53.43
2018-02-10T21:46:02.066Z,52.93
2018-02-10T21:48:30.256Z,55.30
2018-02-10T21:50:58.458Z,50.33
2018-02-10T21:53:26.622Z,50.73
2018-02-10T21:55:54.804Z,51.40
2018-02-10T21:58:23.015Z,52.60
2018-02-10T22:00:51.947Z,51.83
2018-02-10T22:03:20.130Z,51.00
2018-02-10T22:05:48.303Z,52.00
2018-02-10T22:08:16.468Z,48.43
2018-02-10T22:10:44.654Z,50.83
2018-02-10T22:13:12.817Z,52.70
2018-02-10T22:15:41.277Z,52.40
2018-02-10T22:18:09.456Z,50.93
2018-02-10T22:20:37.630Z,54.07
2018-02-10T22:23:05.806Z,55.67
2018-02-10T22:25:33.988Z,51.20
2018-02-10T22:28:02.149Z,50.73
2018-02-10T22:30:30.328Z,57.33
2018-02-10T22:32:58.500Z,55.73
2018-02-10T22:35:26.679Z,53.10
2018-02-10T22:37:54.841Z,51.83
2018-02-10T22:40:23.811Z,54.37
2018-02-10T22:42:52.015Z,52.40
2018-02-10T22:45:20.212Z,53.33
2018-02-10T22:47:48.394Z,56.20
2018-02-10T22:50:16.578Z,56.50
2018-02-10T22:52:44.766Z,58.43
2018-02-10T22:55:12.935Z,53.83
2018-02-10T22:57:41.142Z,56.33
2018-02-10T23:00:10.090Z,60.50
2018-02-10T23:02:38.269Z,59.53
2018-02-10T23:05:06.459Z,61.37
2018-02-10T23:07:34.630Z,58.27
2018-02-10T23:10:02.818Z,59.00
2018-02-10T23:12:30.995Z,60.67
2018-02-10T23:14:59.174Z,58.80
2018-02-10T23:17:27.358Z,57.03
2018-02-10T23:19:56.294Z,61.47
2018-02-10T23:22:24.477Z,54.90
2018-02-10T23:24:52.661Z,63.33
2018-02-10T23:27:20.830Z,60.20
2018-02-10T23:29:49.035Z,59.30
2018-02-10T23:32:17.227Z,59.27
2018-02-10T23:34:46.189Z,59.97
2018-02-10T23:37:14.366Z,62.07
2018-02-10T23:39:42.558Z,62.87
2018-02-10T23:42:10.738Z,63.43
2018-02-10T23:44:38.908Z,58.00
2018-02-10T23:47:07.086Z,56.77
2018-02-10T23:49:36.026Z,55.50
2018-02-10T23:52:04.202Z,60.10
2018-02-10T23:54:32.382Z,60.93
2018-02-10T23:57:00.567Z,59.17
2018-02-10T23:59:28.765Z,64.90
